Worthington, MN

9:53 AM CST on November 21, 2017 (GMT -0600)
Worthington Municipal

Weather History for KOTG - April, 2014

Change the Weather History Date:

Tuesday, April 1, 2014

  Actual Average Record
Temperature  
Mean Temperature 26 °F -  
Max Temperature 35 °F 45 °F 84 °F (2012)
Min Temperature 17 °F 28 °F 7 °F (1975)
Degree Days  
Heating Degree Days 39    
Moisture  
Dew Point 15 °F    
Average Humidity 63    
Maximum Humidity 74    
Minimum Humidity 52    
Precipitation  
Precipitation 0.00 in - - ()
Sea Level Pressure  
Sea Level Pressure 29.96 in    
Wind  
Wind Speed 22 mph (NW)    
Max Wind Speed 34 mph    
Max Gust Speed 48 mph    
Visibility 10 miles    
Events      
Averages and records for this station are not official NWS values.
T = Trace of Precipitation, MM = Missing Value Source: NWS Daily Summary

Daily Weather History Graph

Daily Weather History Graph

Search for Another Location

Airport or City:

Trip Planner

Search our weather history database for the weather conditions in past years. The results will help you decide how hot, cold, wet, or windy it might be!

Date:

Astronomy

Apr. 01, 2014 Rise Set
Actual Time 7:03 AM CDT 7:49 PM CDT
Civil Twilight 6:34 AM CDT 8:18 PM CDT
Nautical Twilight 6:00 AM CDT 8:52 PM CDT
Astronomical Twilight 5:24 AM CDT 9:28 PM CDT
Moon 8:03 AM CDT (4/1) 10:17 PM CDT (4/1)
Length of Visible Light 13h 43m
Length of Day
12h 45m
Waxing Crescent, 5% of the Moon is Illuminated
Apr 1
Waxing Crescent
Apr 7
First Quarter
Apr 15
Full
Apr 22
Last Quarter
Apr 29
New

Hourly Weather History & Observations

Time (CDT) Temp. Windchill Dew Point Humidity Pressure Visibility Wind Dir Wind Speed Gust Speed Precip Events Conditions
12:15 AM 19.4 °F 0.8 °F 8.6 °F 63% 29.66 in 10.0 mi WNW 28.8 mph 40.3 mph N/A   Overcast
12:35 AM 19.4 °F -0.3 °F 8.6 °F 63% 29.67 in 10.0 mi WNW 33.4 mph 42.6 mph N/A   Mostly Cloudy
12:55 AM 19.4 °F 0.5 °F 8.6 °F 63% 29.69 in 10.0 mi WNW 29.9 mph 43.7 mph N/A   Scattered Clouds
1:15 AM 19.4 °F 0.2 °F 8.6 °F 63% 29.71 in 10.0 mi WNW 31.1 mph 43.7 mph N/A   Partly Cloudy
1:35 AM 19.4 °F -0.6 °F 8.6 °F 63% 29.71 in 10.0 mi WNW 34.5 mph 43.7 mph N/A   Clear
1:55 AM 17.6 °F -2.5 °F 8.6 °F 68% 29.72 in 7.0 mi WNW 32.2 mph 48.3 mph N/A   Clear
2:15 AM - - - N/A% 29.73 in 9.0 mi WNW 34.5 mph 46.0 mph N/A   Clear
2:35 AM 17.6 °F -1.9 °F 8.6 °F 68% 29.74 in 8.0 mi WNW 29.9 mph 43.7 mph N/A   Clear
2:55 AM 17.6 °F -2.2 °F 8.6 °F 68% 29.76 in 10.0 mi NW 31.1 mph 41.4 mph N/A   Partly Cloudy
3:15 AM 17.6 °F -1.6 °F 8.6 °F 68% 29.76 in 10.0 mi NW 28.8 mph 38.0 mph N/A   Partly Cloudy
3:35 AM 17.6 °F -1.9 °F 8.6 °F 68% 29.77 in 10.0 mi WNW 29.9 mph 36.8 mph N/A   Clear
3:55 AM - - - N/A% 29.77 in 10.0 mi WNW 34.5 mph 40.3 mph N/A   Clear
4:15 AM 17.6 °F -1.0 °F 8.6 °F 68% 29.80 in 10.0 mi WNW 26.5 mph 35.7 mph N/A   Clear
4:35 AM 17.6 °F -1.3 °F 8.6 °F 68% 29.82 in 10.0 mi WNW 27.6 mph 34.5 mph N/A   Clear
4:55 AM 17.6 °F -1.3 °F 8.6 °F 68% 29.84 in 8.0 mi WNW 27.6 mph 34.5 mph N/A   Clear
5:15 AM 17.6 °F -0.3 °F 6.8 °F 63% 29.85 in 10.0 mi WNW 24.2 mph 35.7 mph N/A   Clear
5:35 AM 17.6 °F -0.3 °F 6.8 °F 63% 29.85 in 10.0 mi WNW 24.2 mph 31.1 mph N/A   Clear
5:55 AM 17.6 °F 0.9 °F 8.6 °F 68% 29.87 in 10.0 mi WNW 20.7 mph 31.1 mph N/A   Clear
6:15 AM 17.6 °F -0.6 °F 8.6 °F 68% 29.88 in 10.0 mi WNW 25.3 mph 29.9 mph N/A   Clear
6:35 AM 17.6 °F 0.1 °F 8.6 °F 68% 29.88 in 10.0 mi WNW 23.0 mph 28.8 mph N/A   Clear
6:55 AM 17.6 °F 1.3 °F 8.6 °F 68% 29.89 in 10.0 mi WNW 19.6 mph 25.3 mph N/A   Clear
7:15 AM 17.6 °F 2.2 °F 8.6 °F 68% 29.91 in 10.0 mi WNW 17.3 mph - N/A   Clear
7:35 AM 17.6 °F 2.7 °F 8.6 °F 68% 29.92 in 10.0 mi WNW 16.1 mph - N/A   Clear
7:55 AM 17.6 °F 1.7 °F 8.6 °F 68% 29.92 in 10.0 mi WNW 18.4 mph - N/A   Clear
8:15 AM 17.6 °F 2.2 °F 8.6 °F 68% 29.94 in 10.0 mi WNW 17.3 mph 24.2 mph N/A   Clear
8:35 AM 19.4 °F 4.5 °F 10.4 °F 68% 29.96 in 10.0 mi WNW 17.3 mph - N/A   Clear
8:55 AM 19.4 °F 4.5 °F 8.6 °F 63% 29.97 in 10.0 mi WNW 17.3 mph - N/A   Clear
9:15 AM 19.4 °F 2.5 °F 10.4 °F 68% 29.97 in 10.0 mi WNW 23.0 mph - N/A   Clear
9:35 AM 21.2 °F 6.0 °F 10.4 °F 63% 29.99 in 10.0 mi WNW 19.6 mph 24.2 mph N/A   Clear
9:55 AM 21.2 °F 5.6 °F 10.4 °F 63% 30.00 in 10.0 mi WNW 20.7 mph - N/A   Clear
10:15 AM 23.0 °F 8.7 °F 10.4 °F 59% 30.00 in 10.0 mi WNW 18.4 mph - N/A   Clear
10:35 AM 24.8 °F 11.1 °F 12.2 °F 59% 30.00 in 10.0 mi WNW 18.4 mph 25.3 mph N/A   Clear
10:55 AM 24.8 °F 10.7 °F 12.2 °F 59% 30.00 in 10.0 mi NW 19.6 mph - N/A   Clear
11:15 AM 26.6 °F 13.1 °F 14.0 °F 59% 30.00 in 10.0 mi WNW 19.6 mph - N/A   Clear
11:35 AM 28.4 °F 16.2 °F 15.8 °F 59% 30.01 in 10.0 mi WNW 17.3 mph 21.9 mph N/A   Clear
11:55 AM 28.4 °F 16.2 °F 15.8 °F 59% 30.03 in 10.0 mi WNW 17.3 mph - N/A   Clear
12:15 PM 30.2 °F 18.5 °F 15.8 °F 55% 30.03 in 10.0 mi WNW 17.3 mph 23.0 mph N/A   Clear
12:35 PM 30.2 °F 19.3 °F 15.8 °F 55% 30.03 in 10.0 mi WNW 15.0 mph 21.9 mph N/A   Clear
12:55 PM 30.2 °F 19.8 °F 17.6 °F 60% 30.03 in 10.0 mi WNW 13.8 mph 20.7 mph N/A   Clear
1:15 PM 32.0 °F 20.8 °F 17.6 °F 55% 30.02 in 10.0 mi West 17.3 mph 20.7 mph N/A   Clear
1:35 PM 32.0 °F 20.8 °F 17.6 °F 55% 30.02 in 10.0 mi WNW 17.3 mph 21.9 mph N/A   Clear
1:55 PM 33.8 °F 23.5 °F 19.4 °F 56% 30.02 in 10.0 mi WNW 16.1 mph 21.9 mph N/A   Clear
2:15 PM 33.8 °F 23.9 °F 19.4 °F 56% 30.02 in 10.0 mi WNW 15.0 mph 19.6 mph N/A   Clear
2:35 PM 35.6 °F 25.5 °F 19.4 °F 52% 30.02 in 10.0 mi NW 17.3 mph - N/A   Clear
2:55 PM 33.8 °F 24.3 °F 19.4 °F 56% 30.03 in 10.0 mi WNW 13.8 mph - N/A   Clear
3:15 PM 33.8 °F 24.8 °F 19.4 °F 56% 30.03 in 10.0 mi West 12.7 mph - N/A   Clear
3:35 PM 35.6 °F 27.1 °F 21.2 °F 56% 30.02 in 10.0 mi NW 12.7 mph 18.4 mph N/A   Clear
3:55 PM 35.6 °F 26.6 °F 21.2 °F 56% 30.02 in 10.0 mi NW 13.8 mph - N/A   Clear
4:15 PM 35.6 °F 28.0 °F 21.2 °F 56% 30.03 in 10.0 mi WNW 10.4 mph 16.1 mph N/A   Clear
4:35 PM 35.6 °F 26.6 °F 21.2 °F 56% 30.03 in 10.0 mi WNW 13.8 mph - N/A   Clear
4:55 PM 35.6 °F 28.0 °F 21.2 °F 56% 30.03 in 10.0 mi NW 10.4 mph - N/A   Clear
5:15 PM 35.6 °F 27.1 °F 21.2 °F 56% 30.04 in 10.0 mi WNW 12.7 mph - N/A   Clear
5:35 PM 35.6 °F 28.0 °F 21.2 °F 56% 30.05 in 10.0 mi WNW 10.4 mph - N/A   Clear
5:55 PM 35.6 °F 27.5 °F 21.2 °F 56% 30.05 in 10.0 mi WNW 11.5 mph - N/A   Clear
6:15 PM 33.8 °F 25.3 °F 21.2 °F 60% 30.06 in 10.0 mi WNW 11.5 mph - N/A   Clear
6:35 PM 33.8 °F 26.4 °F 21.2 °F 60% 30.06 in 10.0 mi NW 9.2 mph - N/A   Clear
6:55 PM 33.8 °F 27.0 °F 21.2 °F 60% 30.07 in 10.0 mi WNW 8.1 mph - N/A   Clear
7:15 PM 33.8 °F 27.0 °F 21.2 °F 60% 30.06 in 10.0 mi WNW 8.1 mph - N/A   Clear
7:35 PM 33.8 °F 28.6 °F 21.2 °F 60% 30.07 in 10.0 mi WNW 5.8 mph - N/A   Clear
7:55 PM 33.8 °F 28.6 °F 21.2 °F 60% 30.07 in 10.0 mi NNW 5.8 mph - N/A   Clear
8:15 PM 32.0 °F 25.6 °F 21.2 °F 64% 30.07 in 10.0 mi North 6.9 mph - N/A   Clear
8:35 PM 32.0 °F 24.8 °F 21.2 °F 64% 30.08 in 10.0 mi North 8.1 mph - N/A   Clear
8:55 PM 30.2 °F 21.3 °F 21.2 °F 69% 30.08 in 10.0 mi NNE 10.4 mph - N/A   Clear
9:15 PM 30.2 °F 21.3 °F 21.2 °F 69% 30.08 in 10.0 mi NNE 10.4 mph - N/A   Clear
9:35 PM 30.2 °F 21.9 °F 21.2 °F 69% 30.09 in 10.0 mi NNE 9.2 mph - N/A   Clear
9:55 PM 30.2 °F 20.8 °F 21.2 °F 69% 30.09 in 10.0 mi NNE 11.5 mph - N/A   Clear
10:15 PM 28.4 °F 18.5 °F 21.2 °F 74% 30.09 in 10.0 mi NNE 11.5 mph - N/A   Partly Cloudy
10:35 PM 28.4 °F 18.5 °F 21.2 °F 74% 30.09 in 10.0 mi NNE 11.5 mph - N/A   Partly Cloudy
10:55 PM 28.4 °F 19.7 °F 21.2 °F 74% 30.09 in 10.0 mi North 9.2 mph - N/A   Mostly Cloudy
11:15 PM 28.4 °F 19.7 °F 21.2 °F 74% 30.10 in 10.0 mi North 9.2 mph - N/A   Mostly Cloudy
11:35 PM 26.6 °F 18.2 °F 19.4 °F 74% 30.12 in 10.0 mi North 8.1 mph - N/A   Mostly Cloudy
11:55 PM 26.6 °F 17.5 °F 19.4 °F 74% 30.12 in 10.0 mi North 9.2 mph - N/A   Scattered Clouds